sensor_id;sensor_type;location;lat;lon;timestamp;pressure;altitude;pressure_sealevel;temperature;humidity
71504;BME280;59323;50.874;7.028;2023-01-31T00:01:16;102202.47;;;4.62;86.52
71504;BME280;59323;50.874;7.028;2023-01-31T00:03:42;102207.13;;;4.56;87.13
71504;BME280;59323;50.874;7.028;2023-01-31T00:06:35;102207.13;;;4.56;86.54
71504;BME280;59323;50.874;7.028;2023-01-31T00:09:04;102200.41;;;4.54;87.51
71504;BME280;59323;50.874;7.028;2023-01-31T00:11:30;102204.44;;;4.56;87.31
71504;BME280;59323;50.874;7.028;2023-01-31T00:14:00;102215.19;;;4.56;87.31
71504;BME280;59323;50.874;7.028;2023-01-31T00:16:26;102213.84;;;4.54;87.45
71504;BME280;59323;50.874;7.028;2023-01-31T00:18:51;102214.13;;;4.52;87.68
71504;BME280;59323;50.874;7.028;2023-01-31T00:21:20;102211.72;;;4.51;87.57
71504;BME280;59323;50.874;7.028;2023-01-31T00:23:47;102211.16;;;4.54;87.64
71504;BME280;59323;50.874;7.028;2023-01-31T00:26:19;102216.28;;;4.55;87.16
71504;BME280;59323;50.874;7.028;2023-01-31T00:28:46;102211.13;;;4.59;87.38
71504;BME280;59323;50.874;7.028;2023-01-31T00:31:13;102211.41;;;4.57;87.36
71504;BME280;59323;50.874;7.028;2023-01-31T00:33:41;102216.50;;;4.59;87.23
71504;BME280;59323;50.874;7.028;2023-01-31T00:36:09;102207.94;;;4.57;86.79
71504;BME280;59323;50.874;7.028;2023-01-31T00:38:35;102208.16;;;4.60;86.70
71504;BME280;59323;50.874;7.028;2023-01-31T00:41:01;102207.63;;;4.58;87.35
71504;BME280;59323;50.874;7.028;2023-01-31T00:43:28;102205.75;;;4.59;86.95
71504;BME280;59323;50.874;7.028;2023-01-31T00:45:53;102199.78;;;4.62;86.59
71504;BME280;59323;50.874;7.028;2023-01-31T00:48:19;102199.56;;;4.58;87.17
71504;BME280;59323;50.874;7.028;2023-01-31T00:50:44;102198.47;;;4.59;87.76
71504;BME280;59323;50.874;7.028;2023-01-31T00:53:10;102192.28;;;4.59;86.96
71504;BME280;59323;50.874;7.028;2023-01-31T00:55:35;102191.78;;;4.57;87.23
71504;BME280;59323;50.874;7.028;2023-01-31T00:58:01;102200.06;;;4.60;87.21
71504;BME280;59323;50.874;7.028;2023-01-31T01:00:27;102193.66;;;4.56;87.26
71504;BME280;59323;50.874;7.028;2023-01-31T01:02:52;102188.28;;;4.56;87.25
71504;BME280;59323;50.874;7.028;2023-01-31T01:05:18;102200.13;;;4.55;87.70
71504;BME280;59323;50.874;7.028;2023-01-31T01:07:43;102204.19;;;4.53;87.38
71504;BME280;59323;50.874;7.028;2023-01-31T01:10:09;102202.63;;;4.46;87.11
71504;BME280;59323;50.874;7.028;2023-01-31T01:12:34;102204.00;;;4.44;87.55
71504;BME280;59323;50.874;7.028;2023-01-31T01:15:00;102220.16;;;4.44;87.79
71504;BME280;59323;50.874;7.028;2023-01-31T01:17:25;102217.97;;;4.46;87.11
71504;BME280;59323;50.874;7.028;2023-01-31T01:19:50;102218.03;;;4.41;86.91
71504;BME280;59323;50.874;7.028;2023-01-31T01:22:16;102210.59;;;4.33;87.17
71504;BME280;59323;50.874;7.028;2023-01-31T01:24:42;102219.53;;;4.28;87.62
71504;BME280;59323;50.874;7.028;2023-01-31T01:27:08;102225.47;;;4.25;88.15
71504;BME280;59323;50.874;7.028;2023-01-31T01:29:33;102217.69;;;4.24;87.62
71504;BME280;59323;50.874;7.028;2023-01-31T01:31:59;102225.53;;;4.20;88.33
71504;BME280;59323;50.874;7.028;2023-01-31T01:34:24;102211.84;;;4.17;88.84
71504;BME280;59323;50.874;7.028;2023-01-31T01:36:50;102213.22;;;4.14;88.70
71504;BME280;59323;50.874;7.028;2023-01-31T01:39:17;102212.41;;;4.13;89.05
71504;BME280;59323;50.874;7.028;2023-01-31T01:41:43;102212.19;;;4.10;89.21
71504;BME280;59323;50.874;7.028;2023-01-31T01:47:33;102219.16;;;4.11;89.03
71504;BME280;59323;50.874;7.028;2023-01-31T01:50:37;102215.66;;;4.10;88.86
71504;BME280;59323;50.874;7.028;2023-01-31T01:53:14;102217.56;;;4.10;88.96
71504;BME280;59323;50.874;7.028;2023-01-31T01:58:25;102205.72;;;4.11;88.88
71504;BME280;59323;50.874;7.028;2023-01-31T02:00:53;102198.16;;;4.13;88.60
71504;BME280;59323;50.874;7.028;2023-01-31T02:03:18;102198.66;;;4.15;88.00
71504;BME280;59323;50.874;7.028;2023-01-31T02:05:57;102204.56;;;4.17;87.94
71504;BME280;59323;50.874;7.028;2023-01-31T02:08:25;102195.69;;;4.17;87.79
71504;BME280;59323;50.874;7.028;2023-01-31T02:10:56;102195.69;;;4.17;87.56
71504;BME280;59323;50.874;7.028;2023-01-31T02:13:23;102184.94;;;4.17;87.61
71504;BME280;59323;50.874;7.028;2023-01-31T02:15:49;102196.78;;;4.16;87.74
71504;BME280;59323;50.874;7.028;2023-01-31T02:18:14;102197.06;;;4.14;87.92
71504;BME280;59323;50.874;7.028;2023-01-31T02:32:47;102203.34;;;4.04;87.77
71504;BME280;59323;50.874;7.028;2023-01-31T02:38:55;102203.34;;;4.04;87.54
71504;BME280;59323;50.874;7.028;2023-01-31T02:41:35;102190.47;;;4.01;87.58
71504;BME280;59323;50.874;7.028;2023-01-31T02:46:59;102189.47;;;3.92;87.89
71504;BME280;59323;50.874;7.028;2023-01-31T02:49:40;102182.22;;;3.93;87.46
71504;BME280;59323;50.874;7.028;2023-01-31T02:52:44;102178.22;;;3.90;87.62
71504;BME280;59323;50.874;7.028;2023-01-31T02:55:17;102179.03;;;3.86;88.13
71504;BME280;59323;50.874;7.028;2023-01-31T02:58:06;102184.97;;;3.82;88.08
71504;BME280;59323;50.874;7.028;2023-01-31T03:00:35;102185.03;;;3.77;87.80
71504;BME280;59323;50.874;7.028;2023-01-31T03:03:16;102194.22;;;3.71;88.29
71504;BME280;59323;50.874;7.028;2023-01-31T03:05:42;102200.16;;;3.68;88.61
71504;BME280;59323;50.874;7.028;2023-01-31T03:08:09;102197.50;;;3.63;88.50
71504;BME280;59323;50.874;7.028;2023-01-31T03:10:59;102203.44;;;3.60;88.71
71504;BME280;59323;50.874;7.028;2023-01-31T03:18:43;102192.50;;;3.52;88.90
71504;BME280;59323;50.874;7.028;2023-01-31T03:21:15;102201.91;;;3.49;89.29
71504;BME280;59323;50.874;7.028;2023-01-31T03:23:44;102198.72;;;3.47;89.33
71504;BME280;59323;50.874;7.028;2023-01-31T03:26:13;102193.38;;;3.42;89.15
71504;BME280;59323;50.874;7.028;2023-01-31T03:28:40;102195.81;;;3.38;89.87
71504;BME280;59323;50.874;7.028;2023-01-31T03:31:20;102197.19;;;3.36;89.51
71504;BME280;59323;50.874;7.028;2023-01-31T03:33:51;102182.97;;;3.30;89.43
71504;BME280;59323;50.874;7.028;2023-01-31T03:36:32;102183.53;;;3.27;89.91
71504;BME280;59323;50.874;7.028;2023-01-31T03:41:49;102173.91;;;3.16;90.14
71504;BME280;59323;50.874;7.028;2023-01-31T03:47:03;102177.44;;;3.11;90.40
71504;BME280;59323;50.874;7.028;2023-01-31T03:49:30;102178.00;;;3.08;90.63
71504;BME280;59323;50.874;7.028;2023-01-31T03:52:03;102181.25;;;3.05;90.99
71504;BME280;59323;50.874;7.028;2023-01-31T03:54:35;102189.84;;;3.02;90.75
71504;BME280;59323;50.874;7.028;2023-01-31T03:57:16;102180.47;;;3.00;90.68
71504;BME280;59323;50.874;7.028;2023-01-31T03:59:46;102184.22;;;2.99;91.05
71504;BME280;59323;50.874;7.028;2023-01-31T04:02:15;102179.66;;;2.99;90.87
71504;BME280;59323;50.874;7.028;2023-01-31T04:04:45;102184.22;;;2.99;91.27
71504;BME280;59323;50.874;7.028;2023-01-31T04:07:13;102185.88;;;2.95;91.19
71504;BME280;59323;50.874;7.028;2023-01-31T04:09:38;102182.38;;;2.94;90.95
71504;BME280;59323;50.874;7.028;2023-01-31T04:12:04;102185.34;;;2.93;91.32
71504;BME280;59323;50.874;7.028;2023-01-31T04:14:30;102173.81;;;2.87;91.43
71504;BME280;59323;50.874;7.028;2023-01-31T04:16:55;102167.94;;;2.85;91.68
71504;BME280;59323;50.874;7.028;2023-01-31T04:19:21;102165.25;;;2.85;91.72
71504;BME280;59323;50.874;7.028;2023-01-31T04:21:46;102174.38;;;2.84;92.07
71504;BME280;59323;50.874;7.028;2023-01-31T04:24:12;102160.72;;;2.80;92.06
71504;BME280;59323;50.874;7.028;2023-01-31T04:26:37;102162.59;;;2.80;92.49
71504;BME280;59323;50.874;7.028;2023-01-31T04:29:03;102147.03;;;2.77;91.93
71504;BME280;59323;50.874;7.028;2023-01-31T04:31:29;102156.69;;;2.78;92.42
71504;BME280;59323;50.874;7.028;2023-01-31T04:33:55;102156.16;;;2.76;92.28
71504;BME280;59323;50.874;7.028;2023-01-31T04:36:22;102155.91;;;2.72;92.11
71504;BME280;59323;50.874;7.028;2023-01-31T04:38:48;102153.50;;;2.71;92.67
71504;BME280;59323;50.874;7.028;2023-01-31T04:41:15;102147.91;;;2.67;91.93
71504;BME280;59323;50.874;7.028;2023-01-31T04:43:41;102149.53;;;2.63;92.61
71504;BME280;59323;50.874;7.028;2023-01-31T04:46:06;102149.53;;;2.63;92.62
71504;BME280;59323;50.874;7.028;2023-01-31T04:48:32;102142.03;;;2.60;92.68
71504;BME280;59323;50.874;7.028;2023-01-31T04:50:58;102143.63;;;2.56;92.80
71504;BME280;59323;50.874;7.028;2023-01-31T04:53:23;102141.50;;;2.53;93.24
71504;BME280;59323;50.874;7.028;2023-01-31T04:55:48;102137.22;;;2.47;92.86
71504;BME280;59323;50.874;7.028;2023-01-31T04:58:13;102143.41;;;2.47;93.22
71504;BME280;59323;50.874;7.028;2023-01-31T05:00:39;102139.38;;;2.45;92.61
71504;BME280;59323;50.874;7.028;2023-01-31T05:03:04;102131.38;;;2.40;92.60
71504;BME280;59323;50.874;7.028;2023-01-31T05:05:31;102125.75;;;2.36;93.08
71504;BME280;59323;50.874;7.028;2023-01-31T05:07:57;102120.94;;;2.33;93.33
71504;BME280;59323;50.874;7.028;2023-01-31T05:10:22;102129.53;;;2.30;93.83
71504;BME280;59323;50.874;7.028;2023-01-31T05:12:47;102132.75;;;2.27;93.84
71504;BME280;59323;50.874;7.028;2023-01-31T05:15:12;102133.56;;;2.22;94.00
71504;BME280;59323;50.874;7.028;2023-01-31T05:17:38;102136.53;;;2.21;93.95
71504;BME280;59323;50.874;7.028;2023-01-31T05:20:04;102132.78;;;2.17;94.04
71504;BME280;59323;50.874;7.028;2023-01-31T05:22:29;102125.28;;;2.14;93.58
71504;BME280;59323;50.874;7.028;2023-01-31T05:24:55;102128.25;;;2.12;94.25
71504;BME280;59323;50.874;7.028;2023-01-31T05:27:20;102126.38;;;2.08;94.30
71504;BME280;59323;50.874;7.028;2023-01-31T05:29:45;102125.84;;;2.06;94.01
71504;BME280;59323;50.874;7.028;2023-01-31T05:32:11;102128.00;;;2.04;94.23
71504;BME280;59323;50.874;7.028;2023-01-31T05:34:37;102118.38;;;1.98;94.50
71504;BME280;59323;50.874;7.028;2023-01-31T05:37:03;102117.56;;;1.97;94.25
71504;BME280;59323;50.874;7.028;2023-01-31T05:39:28;102116.75;;;1.97;94.91
71504;BME280;59323;50.874;7.028;2023-01-31T05:41:54;102120.75;;;1.94;95.70
71504;BME280;59323;50.874;7.028;2023-01-31T05:44:20;102129.59;;;1.95;95.83
71504;BME280;59323;50.874;7.028;2023-01-31T05:46:45;102124.25;;;1.95;95.28
71504;BME280;59323;50.874;7.028;2023-01-31T05:49:11;102116.47;;;1.93;95.82
71504;BME280;59323;50.874;7.028;2023-01-31T05:51:37;102118.88;;;1.95;96.26
71504;BME280;59323;50.874;7.028;2023-01-31T05:54:03;102124.25;;;1.95;96.67
71504;BME280;59323;50.874;7.028;2023-01-31T05:56:29;102137.13;;;1.98;96.19
71504;BME280;59323;50.874;7.028;2023-01-31T05:58:54;102130.16;;;1.97;96.69
71504;BME280;59323;50.874;7.028;2023-01-31T06:01:22;102129.09;;;1.98;97.12
71504;BME280;59323;50.874;7.028;2023-01-31T06:03:47;102130.16;;;2.02;96.53
71504;BME280;59323;50.874;7.028;2023-01-31T06:06:13;102131.22;;;2.06;97.30
71504;BME280;59323;50.874;7.028;2023-01-31T06:08:39;102132.28;;;2.10;97.74
71504;BME280;59323;50.874;7.028;2023-01-31T06:11:10;102131.47;;;2.09;97.56
71504;BME280;59323;50.874;7.028;2023-01-31T06:13:41;102127.16;;;2.13;97.99
71504;BME280;59323;50.874;7.028;2023-01-31T06:16:10;102123.13;;;2.16;97.50
71504;BME280;59323;50.874;7.028;2023-01-31T06:18:35;102121.00;;;2.18;97.74
71504;BME280;59323;50.874;7.028;2023-01-31T06:21:01;102121.00;;;2.18;97.54
71504;BME280;59323;50.874;7.028;2023-01-31T06:23:26;102112.94;;;2.18;97.26
71504;BME280;59323;50.874;7.028;2023-01-31T06:25:53;102113.19;;;2.21;97.63
71504;BME280;59323;50.874;7.028;2023-01-31T06:28:20;102110.78;;;2.25;97.25
71504;BME280;59323;50.874;7.028;2023-01-31T06:30:46;102108.88;;;2.26;96.75
71504;BME280;59323;50.874;7.028;2023-01-31T06:33:11;102103.00;;;2.23;96.80
71504;BME280;59323;50.874;7.028;2023-01-31T06:35:38;102097.63;;;2.23;96.90
71504;BME280;59323;50.874;7.028;2023-01-31T06:38:04;102090.41;;;2.24;96.94
71504;BME280;59323;50.874;7.028;2023-01-31T06:40:30;102099.78;;;2.27;96.95
71504;BME280;59323;50.874;7.028;2023-01-31T06:42:56;102094.94;;;2.29;97.07
71504;BME280;59323;50.874;7.028;2023-01-31T06:45:22;102091.97;;;2.30;96.87
71504;BME280;59323;50.874;7.028;2023-01-31T06:47:48;102091.97;;;2.30;97.15
71504;BME280;59323;50.874;7.028;2023-01-31T06:50:13;102082.56;;;2.33;96.81
71504;BME280;59323;50.874;7.028;2023-01-31T06:52:39;102079.59;;;2.39;96.47
71504;BME280;59323;50.874;7.028;2023-01-31T06:55:05;102094.06;;;2.43;96.44
71504;BME280;59323;50.874;7.028;2023-01-31T06:57:31;102100.50;;;2.42;96.72
71504;BME280;59323;50.874;7.028;2023-01-31T06:59:57;102102.63;;;2.45;96.55
71504;BME280;59323;50.874;7.028;2023-01-31T07:02:22;102109.84;;;2.50;96.70
71504;BME280;59323;50.874;7.028;2023-01-31T07:04:47;102103.13;;;2.52;96.42
71504;BME280;59323;50.874;7.028;2023-01-31T07:07:13;102111.72;;;2.54;95.98
71504;BME280;59323;50.874;7.028;2023-01-31T07:09:38;102111.72;;;2.54;96.23
71504;BME280;59323;50.874;7.028;2023-01-31T07:12:03;102110.63;;;2.55;96.57
71504;BME280;59323;50.874;7.028;2023-01-31T07:14:29;102114.91;;;2.57;96.12
71504;BME280;59323;50.874;7.028;2023-01-31T07:16:54;102106.59;;;2.58;96.43
71504;BME280;59323;50.874;7.028;2023-01-31T07:19:19;102110.06;;;2.59;96.31
71504;BME280;59323;50.874;7.028;2023-01-31T07:21:45;102104.47;;;2.60;96.63
71504;BME280;59323;50.874;7.028;2023-01-31T07:24:13;102110.63;;;2.61;96.24
71504;BME280;59323;50.874;7.028;2023-01-31T07:26:38;102117.06;;;2.65;96.00
71504;BME280;59323;50.874;7.028;2023-01-31T07:29:03;102110.06;;;2.69;96.31
71504;BME280;59323;50.874;7.028;2023-01-31T07:31:29;102112.97;;;2.72;96.49
71504;BME280;59323;50.874;7.028;2023-01-31T07:33:54;102115.38;;;2.74;96.18
71504;BME280;59323;50.874;7.028;2023-01-31T07:36:19;102132.53;;;2.78;96.06
71504;BME280;59323;50.874;7.028;2023-01-31T07:38:52;102136.84;;;2.79;95.89
71504;BME280;59323;50.874;7.028;2023-01-31T07:41:17;102134.16;;;2.79;95.80
71504;BME280;59323;50.874;7.028;2023-01-31T07:43:43;102127.69;;;2.80;95.60
71504;BME280;59323;50.874;7.028;2023-01-31T07:46:08;102131.19;;;2.80;95.16
71504;BME280;59323;50.874;7.028;2023-01-31T07:48:35;102120.41;;;2.85;95.94
71504;BME280;59323;50.874;7.028;2023-01-31T07:51:01;102118.78;;;2.90;95.68
71504;BME280;59323;50.874;7.028;2023-01-31T07:53:28;102113.66;;;2.93;95.90
71504;BME280;59323;50.874;7.028;2023-01-31T07:55:54;102097.75;;;3.02;95.42
71504;BME280;59323;50.874;7.028;2023-01-31T07:58:20;102084.25;;;3.12;94.95
71504;BME280;59323;50.874;7.028;2023-01-31T08:00:45;102080.94;;;3.25;93.96
71504;BME280;59323;50.874;7.028;2023-01-31T08:03:30;102085.38;;;3.40;92.92
71504;BME280;59323;50.874;7.028;2023-01-31T08:06:09;102064.31;;;3.52;92.01
71504;BME280;59323;50.874;7.028;2023-01-31T08:08:36;102072.22;;;3.67;90.96
71504;BME280;59323;50.874;7.028;2023-01-31T08:11:03;102074.56;;;3.74;90.62
71504;BME280;59323;50.874;7.028;2023-01-31T08:13:30;102068.63;;;3.77;89.96
71504;BME280;59323;50.874;7.028;2023-01-31T08:15:55;102080.13;;;3.82;90.24
71504;BME280;59323;50.874;7.028;2023-01-31T08:18:21;102081.41;;;3.90;89.88
71504;BME280;59323;50.874;7.028;2023-01-31T08:20:46;102098.00;;;3.97;89.72
71504;BME280;59323;50.874;7.028;2023-01-31T08:23:11;102086.16;;;3.98;89.98
71504;BME280;59323;50.874;7.028;2023-01-31T08:25:37;102096.78;;;4.08;89.00
71504;BME280;59323;50.874;7.028;2023-01-31T08:28:05;102099.66;;;4.17;87.89
71504;BME280;59323;50.874;7.028;2023-01-31T08:30:30;102100.09;;;4.24;87.61
71504;BME280;59323;50.874;7.028;2023-01-31T08:32:56;102102.44;;;4.31;86.80
71504;BME280;59323;50.874;7.028;2023-01-31T08:35:22;102087.09;;;4.31;87.10
71504;BME280;59323;50.874;7.028;2023-01-31T08:37:49;102074.75;;;4.30;86.84
71504;BME280;59323;50.874;7.028;2023-01-31T08:40:15;102082.16;;;4.38;87.16
71504;BME280;59323;50.874;7.028;2023-01-31T08:42:40;102074.09;;;4.38;86.01
71504;BME280;59323;50.874;7.028;2023-01-31T08:45:06;102074.91;;;4.39;85.79
71504;BME280;59323;50.874;7.028;2023-01-31T08:47:32;102078.31;;;4.44;86.48
71504;BME280;59323;50.874;7.028;2023-01-31T08:49:57;102069.66;;;4.47;85.92
71504;BME280;59323;50.874;7.028;2023-01-31T08:52:23;102066.59;;;4.54;85.89
71504;BME280;59323;50.874;7.028;2023-01-31T08:54:48;102067.66;;;4.58;85.93
71504;BME280;59323;50.874;7.028;2023-01-31T08:57:13;102080.25;;;4.63;85.30
71504;BME280;59323;50.874;7.028;2023-01-31T08:59:39;102071.50;;;4.71;84.89
71504;BME280;59323;50.874;7.028;2023-01-31T09:02:04;102082.22;;;4.76;84.63
71504;BME280;59323;50.874;7.028;2023-01-31T09:04:29;102076.75;;;4.81;85.05
71504;BME280;59323;50.874;7.028;2023-01-31T09:06:55;102072.66;;;4.84;85.15
71504;BME280;59323;50.874;7.028;2023-01-31T09:09:20;102073.97;;;4.86;85.47
71504;BME280;59323;50.874;7.028;2023-01-31T09:11:45;102064.00;;;4.87;85.21
71504;BME280;59323;50.874;7.028;2023-01-31T09:14:11;102070.19;;;4.87;85.78
71504;BME280;59323;50.874;7.028;2023-01-31T09:16:37;102060.22;;;4.88;85.93
71504;BME280;59323;50.874;7.028;2023-01-31T09:19:02;102051.84;;;4.89;85.86
71504;BME280;59323;50.874;7.028;2023-01-31T09:21:28;102050.47;;;4.92;85.37
71504;BME280;59323;50.874;7.028;2023-01-31T09:23:58;102053.44;;;4.90;85.25
71504;BME280;59323;50.874;7.028;2023-01-31T09:26:26;102042.25;;;4.83;85.36
71504;BME280;59323;50.874;7.028;2023-01-31T09:28:52;102045.66;;;4.89;85.57
71504;BME280;59323;50.874;7.028;2023-01-31T09:31:18;102043.25;;;4.87;86.14
71504;BME280;59323;50.874;7.028;2023-01-31T09:33:45;102044.06;;;4.88;85.95
71504;BME280;59323;50.874;7.028;2023-01-31T09:36:15;102037.56;;;4.89;85.81
71504;BME280;59323;50.874;7.028;2023-01-31T09:38:41;102034.38;;;4.87;85.87
71504;BME280;59323;50.874;7.028;2023-01-31T09:44:03;102029.28;;;4.85;86.38
71504;BME280;59323;50.874;7.028;2023-01-31T09:46:35;102029.41;;;4.94;86.89
71504;BME280;59323;50.874;7.028;2023-01-31T09:49:04;102030.06;;;5.04;87.20
71504;BME280;59323;50.874;7.028;2023-01-31T09:51:32;102035.25;;;5.15;87.20
71504;BME280;59323;50.874;7.028;2023-01-31T09:53:59;102029.53;;;5.21;87.69
71504;BME280;59323;50.874;7.028;2023-01-31T09:56:47;102025.34;;;5.29;87.18
71504;BME280;59323;50.874;7.028;2023-01-31T09:59:25;102023.66;;;5.33;87.46
71504;BME280;59323;50.874;7.028;2023-01-31T10:02:21;102019.97;;;5.43;86.93
71504;BME280;59323;50.874;7.028;2023-01-31T10:05:03;101999.00;;;5.53;86.06
71504;BME280;59323;50.874;7.028;2023-01-31T10:08:14;102001.22;;;5.65;85.22
71504;BME280;59323;50.874;7.028;2023-01-31T10:10:58;102007.31;;;5.70;85.71
71504;BME280;59323;50.874;7.028;2023-01-31T10:15:59;102012.81;;;5.79;86.38
71504;BME280;59323;50.874;7.028;2023-01-31T10:18:29;102016.78;;;5.82;87.00
71504;BME280;59323;50.874;7.028;2023-01-31T10:20:59;102002.81;;;5.80;86.80
71504;BME280;59323;50.874;7.028;2023-01-31T10:23:32;102008.69;;;5.82;86.58
71504;BME280;59323;50.874;7.028;2023-01-31T10:26:40;101991.41;;;5.83;86.45
71504;BME280;59323;50.874;7.028;2023-01-31T10:29:03;101994.13;;;5.83;87.05
71504;BME280;59323;50.874;7.028;2023-01-31T10:31:39;101985.38;;;5.91;86.47
71504;BME280;59323;50.874;7.028;2023-01-31T10:34:12;101985.69;;;5.89;86.50
71504;BME280;59323;50.874;7.028;2023-01-31T10:39:32;101983.16;;;6.07;85.85
71504;BME280;59323;50.874;7.028;2023-01-31T10:42:31;101973.84;;;6.13;85.22
71504;BME280;59323;50.874;7.028;2023-01-31T10:47:36;101956.81;;;6.26;84.83
71504;BME280;59323;50.874;7.028;2023-01-31T10:50:13;101945.41;;;6.29;84.82
71504;BME280;59323;50.874;7.028;2023-01-31T10:52:54;101945.09;;;6.30;85.52
71504;BME280;59323;50.874;7.028;2023-01-31T10:55:51;101939.88;;;6.34;85.00
71504;BME280;59323;50.874;7.028;2023-01-31T10:58:21;101950.06;;;6.37;84.21
71504;BME280;59323;50.874;7.028;2023-01-31T11:00:47;101938.47;;;6.36;83.96
71504;BME280;59323;50.874;7.028;2023-01-31T11:03:13;101938.66;;;6.40;83.57
71504;BME280;59323;50.874;7.028;2023-01-31T11:05:59;101927.88;;;6.40;83.48
71504;BME280;59323;50.874;7.028;2023-01-31T11:08:33;101912.47;;;6.41;83.94
71504;BME280;59323;50.874;7.028;2023-01-31T11:11:10;101909.94;;;6.44;84.91
71504;BME280;59323;50.874;7.028;2023-01-31T11:13:36;101908.22;;;6.48;85.89
71504;BME280;59323;50.874;7.028;2023-01-31T11:16:03;101901.44;;;6.51;86.52
71504;BME280;59323;50.874;7.028;2023-01-31T11:18:37;101884.44;;;6.50;85.65
71504;BME280;59323;50.874;7.028;2023-01-31T11:21:07;101882.41;;;6.56;85.21
71504;BME280;59323;50.874;7.028;2023-01-31T11:23:33;101883.88;;;6.62;84.88
71504;BME280;59323;50.874;7.028;2023-01-31T11:26:00;101876.25;;;6.64;84.89
71504;BME280;59323;50.874;7.028;2023-01-31T11:28:33;101869.94;;;6.68;84.17
71504;BME280;59323;50.874;7.028;2023-01-31T11:31:00;101865.50;;;6.73;83.80
71504;BME280;59323;50.874;7.028;2023-01-31T11:33:54;101859.78;;;6.74;83.85
71504;BME280;59323;50.874;7.028;2023-01-31T11:36:20;101867.91;;;6.74;84.03
71504;BME280;59323;50.874;7.028;2023-01-31T11:38:50;101856.47;;;6.77;83.71
71504;BME280;59323;50.874;7.028;2023-01-31T11:41:41;101858.06;;;6.78;84.03
71504;BME280;59323;50.874;7.028;2023-01-31T11:44:16;101854.25;;;6.79;83.78
71504;BME280;59323;50.874;7.028;2023-01-31T11:46:49;101850.63;;;6.84;84.15
71504;BME280;59323;50.874;7.028;2023-01-31T11:49:40;101844.59;;;6.87;85.22
71504;BME280;59323;50.874;7.028;2023-01-31T11:52:18;101841.75;;;6.92;84.45
71504;BME280;59323;50.874;7.028;2023-01-31T11:54:49;101838.75;;;6.93;84.18
71504;BME280;59323;50.874;7.028;2023-01-31T11:57:20;101834.31;;;6.97;83.93
71504;BME280;59323;50.874;7.028;2023-01-31T11:59:48;101836.88;;;7.03;83.23
71504;BME280;59323;50.874;7.028;2023-01-31T12:02:30;101824.94;;;7.04;84.00
71504;BME280;59323;50.874;7.028;2023-01-31T12:04:56;101818.56;;;6.99;83.36
71504;BME280;59323;50.874;7.028;2023-01-31T12:07:28;101824.63;;;7.05;82.10
71504;BME280;59323;50.874;7.028;2023-01-31T12:09:56;101815.72;;;7.05;82.55
71504;BME280;59323;50.874;7.028;2023-01-31T12:14:55;101818.44;;;7.05;82.33
71504;BME280;59323;50.874;7.028;2023-01-31T12:17:23;101814.00;;;7.09;81.21
71504;BME280;59323;50.874;7.028;2023-01-31T12:20:13;101800.78;;;7.07;81.56
71504;BME280;59323;50.874;7.028;2023-01-31T12:31:05;101790.94;;;7.11;81.42
71504;BME280;59323;50.874;7.028;2023-01-31T12:33:56;101791.75;;;7.12;81.70
71504;BME280;59323;50.874;7.028;2023-01-31T12:50:43;101800.97;;;7.11;83.96
71504;BME280;59323;50.874;7.028;2023-01-31T12:56:01;101795.88;;;7.09;84.08
71504;BME280;59323;50.874;7.028;2023-01-31T13:06:58;101786.06;;;7.22;84.94
71504;BME280;59323;50.874;7.028;2023-01-31T13:09:27;101787.97;;;7.21;85.28
71504;BME280;59323;50.874;7.028;2023-01-31T13:12:11;101774.78;;;7.28;85.49
71504;BME280;59323;50.874;7.028;2023-01-31T13:14:59;101765.56;;;7.29;85.78
71504;BME280;59323;50.874;7.028;2023-01-31T13:17:30;101777.97;;;7.30;86.09
71504;BME280;59323;50.874;7.028;2023-01-31T13:20:18;101772.72;;;7.34;85.79
71504;BME280;59323;50.874;7.028;2023-01-31T13:22:48;101786.06;;;7.30;85.49
71504;BME280;59323;50.874;7.028;2023-01-31T13:25:23;101781.00;;;7.38;85.58
71504;BME280;59323;50.874;7.028;2023-01-31T13:28:01;101771.44;;;7.31;85.90
71504;BME280;59323;50.874;7.028;2023-01-31T13:30:37;101777.81;;;7.27;86.18
71504;BME280;59323;50.874;7.028;2023-01-31T13:36:05;101785.91;;;7.27;85.72
71504;BME280;59323;50.874;7.028;2023-01-31T13:38:41;101791.47;;;7.30;85.82
71504;BME280;59323;50.874;7.028;2023-01-31T13:41:14;101801.19;;;7.31;85.32
71504;BME280;59323;50.874;7.028;2023-01-31T13:43:42;101800.22;;;7.27;85.89
71504;BME280;59323;50.874;7.028;2023-01-31T13:46:08;101798.63;;;7.26;85.40
71504;BME280;59323;50.874;7.028;2023-01-31T13:52:13;101787.94;;;7.13;86.39
71504;BME280;59323;50.874;7.028;2023-01-31T13:56:54;101785.38;;;7.08;87.08
71504;BME280;59323;50.874;7.028;2023-01-31T13:59:33;101781.69;;;7.04;87.86
71504;BME280;59323;50.874;7.028;2023-01-31T14:02:00;101783.47;;;7.08;87.28
71504;BME280;59323;50.874;7.028;2023-01-31T14:04:33;101786.78;;;7.05;87.49
71504;BME280;59323;50.874;7.028;2023-01-31T14:09:28;101784.88;;;6.97;90.53
71504;BME280;59323;50.874;7.028;2023-01-31T14:11:56;101781.81;;;6.90;91.80
71504;BME280;59323;50.874;7.028;2023-01-31T14:16:54;101785.31;;;6.82;92.39
71504;BME280;59323;50.874;7.028;2023-01-31T14:22:37;101783.69;;;6.72;93.41
71504;BME280;59323;50.874;7.028;2023-01-31T14:27:37;101785.72;;;6.66;94.22
71504;BME280;59323;50.874;7.028;2023-01-31T14:35:01;101794.28;;;6.60;95.42
71504;BME280;59323;50.874;7.028;2023-01-31T14:59:32;101783.06;;;6.44;96.95
71504;BME280;59323;50.874;7.028;2023-01-31T15:01:59;101782.25;;;6.44;97.72
71504;BME280;59323;50.874;7.028;2023-01-31T15:04:27;101779.25;;;6.45;97.44
71504;BME280;59323;50.874;7.028;2023-01-31T15:06:54;101776.84;;;6.44;97.65
71504;BME280;59323;50.874;7.028;2023-01-31T15:11:56;101781.47;;;6.43;97.42
71504;BME280;59323;50.874;7.028;2023-01-31T15:14:34;101777.97;;;6.43;96.71
71504;BME280;59323;50.874;7.028;2023-01-31T15:17:06;101797.47;;;6.40;97.56
71504;BME280;59323;50.874;7.028;2023-01-31T15:19:46;101802.88;;;6.40;98.14
71504;BME280;59323;50.874;7.028;2023-01-31T15:22:15;101801.41;;;6.33;98.75
71504;BME280;59323;50.874;7.028;2023-01-31T15:24:51;101796.19;;;6.37;98.97